createdAt,value
2022-12-18T00:01:28.920Z,101636.72
2022-12-18T00:03:57.004Z,101625.50
2022-12-18T00:06:26.269Z,101642.31
2022-12-18T00:08:54.172Z,101644.03
2022-12-18T00:11:25.039Z,101645.59
2022-12-18T00:13:54.296Z,101658.09
2022-12-18T00:16:24.418Z,101658.22
2022-12-18T00:18:54.646Z,101657.59
2022-12-18T00:21:22.782Z,101666.88
2022-12-18T00:23:51.382Z,101663.81
2022-12-18T00:26:25.863Z,101672.84
2022-12-18T00:28:53.992Z,101675.31
2022-12-18T00:31:24.504Z,101669.94
2022-12-18T00:33:53.966Z,101675.47
2022-12-18T00:36:29.587Z,101677.63
2022-12-18T00:38:59.165Z,101682.34
2022-12-18T00:41:45.074Z,101689.78
2022-12-18T00:44:16.049Z,101692.00
2022-12-18T00:46:45.362Z,101695.03
2022-12-18T00:49:12.404Z,101695.78
2022-12-18T00:51:39.360Z,101695.59
2022-12-18T00:54:06.455Z,101703.06
2022-12-18T00:56:33.388Z,101698.03
2022-12-18T00:59:00.341Z,101703.22
2022-12-18T01:01:27.922Z,101716.03
2022-12-18T01:03:54.927Z,101706.63
2022-12-18T01:06:21.968Z,101717.13
2022-12-18T01:08:48.947Z,101711.19
2022-12-18T01:11:19.231Z,101707.22
2022-12-18T01:13:46.219Z,101710.00
2022-12-18T01:16:16.301Z,101719.00
2022-12-18T01:18:43.815Z,101728.59
2022-12-18T01:21:14.640Z,101731.50
2022-12-18T01:23:42.082Z,101719.28
2022-12-18T01:26:14.275Z,101728.31
2022-12-18T01:28:41.769Z,101726.94
2022-12-18T01:31:20.701Z,101735.81
2022-12-18T01:33:49.812Z,101738.81
2022-12-18T01:36:24.256Z,101751.19
2022-12-18T01:38:52.974Z,101754.38
2022-12-18T01:41:26.032Z,101759.88
2022-12-18T01:44:00.377Z,101761.38
2022-12-18T01:46:28.412Z,101767.97
2022-12-18T01:49:02.137Z,101777.28
2022-12-18T01:51:31.026Z,101773.16
2022-12-18T01:53:58.740Z,101771.34
2022-12-18T01:56:25.741Z,101775.31
2022-12-18T01:59:04.865Z,101771.19
2022-12-18T02:01:33.637Z,101782.19
2022-12-18T02:04:24.635Z,101780.47
2022-12-18T02:07:26.568Z,101794.06
2022-12-18T02:10:03.211Z,101790.38
2022-12-18T02:12:46.286Z,101794.00
2022-12-18T02:15:24.781Z,101803.47
2022-12-18T02:18:02.390Z,101812.25
2022-12-18T02:20:50.123Z,101816.09
2022-12-18T02:23:37.460Z,101812.72
2022-12-18T02:26:26.836Z,101817.72
2022-12-18T02:29:23.806Z,101812.13
2022-12-18T02:31:56.093Z,101820.53
2022-12-18T02:34:29.385Z,101830.19
2022-12-18T02:36:58.611Z,101821.03
2022-12-18T02:39:27.906Z,101833.06
2022-12-18T02:41:55.046Z,101833.97
2022-12-18T02:44:22.009Z,101840.50
2022-12-18T02:46:54.463Z,101843.84
2022-12-18T02:50:03.353Z,101833.97
2022-12-18T02:52:51.626Z,101843.53
2022-12-18T02:55:48.941Z,101857.81
2022-12-18T02:59:09.171Z,101861.00
2022-12-18T03:01:53.258Z,101871.88
2022-12-18T03:04:27.921Z,101867.66
2022-12-18T03:07:01.470Z,101878.91
2022-12-18T03:09:37.986Z,101877.28
2022-12-18T03:12:25.588Z,101891.75
2022-12-18T03:15:04.249Z,101895.28
2022-12-18T03:17:34.699Z,101894.44
2022-12-18T03:20:11.693Z,101898.72
2022-12-18T03:22:42.417Z,101894.28
2022-12-18T03:25:14.418Z,101902.97
2022-12-18T03:27:48.615Z,101901.56
2022-12-18T03:30:18.034Z,101909.19
2022-12-18T03:33:08.861Z,101910.09
2022-12-18T03:35:41.237Z,101913.44
2022-12-18T03:38:08.952Z,101915.59
2022-12-18T03:41:24.897Z,101919.84
2022-12-18T03:44:12.911Z,101921.63
2022-12-18T03:47:17.769Z,101926.31
2022-12-18T03:50:12.799Z,101929.63
2022-12-18T03:52:53.917Z,101922.13
2022-12-18T03:55:22.820Z,101925.63
2022-12-18T03:57:51.072Z,101926.31
2022-12-18T04:00:20.599Z,101941.66
2022-12-18T04:02:53.282Z,101934.72
2022-12-18T04:05:22.776Z,101933.38
2022-12-18T04:07:51.824Z,101936.81
2022-12-18T04:10:19.630Z,101932.38
2022-12-18T04:12:46.761Z,101944.41
2022-12-18T04:15:14.214Z,101950.34
2022-12-18T04:17:49.672Z,101963.03
2022-12-18T04:20:17.570Z,101965.41
2022-12-18T04:22:44.558Z,101959.44
2022-12-18T04:25:13.543Z,101979.31
2022-12-18T04:27:40.680Z,101967.97
2022-12-18T04:30:09.200Z,101986.09
2022-12-18T04:32:36.246Z,101985.84
2022-12-18T04:35:05.243Z,101988.81
2022-12-18T04:37:32.215Z,101986.00
2022-12-18T04:39:59.262Z,101998.19
2022-12-18T04:42:26.195Z,101986.59
2022-12-18T04:44:53.130Z,101996.09
2022-12-18T04:47:20.073Z,101987.81
2022-12-18T04:49:47.089Z,101994.06
2022-12-18T04:52:14.020Z,102004.16
2022-12-18T04:54:40.949Z,102015.75
2022-12-18T04:57:07.978Z,102016.19
2022-12-18T04:59:34.980Z,102016.63
2022-12-18T05:02:02.009Z,102023.31
2022-12-18T05:04:29.073Z,102025.38
2022-12-18T05:06:56.047Z,102014.13
2022-12-18T05:09:22.965Z,102026.19
2022-12-18T05:11:50.013Z,102032.00
2022-12-18T05:14:16.958Z,102040.38
2022-12-18T05:16:43.888Z,102042.66
2022-12-18T05:19:11.502Z,102050.22
2022-12-18T05:21:38.796Z,102057.81
2022-12-18T05:24:06.209Z,102057.13
2022-12-18T05:26:33.148Z,102059.34
2022-12-18T05:29:00.181Z,102066.47
2022-12-18T05:31:27.216Z,102062.66
2022-12-18T05:33:55.034Z,102079.19
2022-12-18T05:36:21.985Z,102069.00
2022-12-18T05:38:48.985Z,102074.00
2022-12-18T05:41:16.097Z,102078.81
2022-12-18T05:43:43.852Z,102074.44
2022-12-18T05:46:16.358Z,102080.28
2022-12-18T05:48:43.689Z,102081.56
2022-12-18T05:51:15.569Z,102093.75
2022-12-18T05:53:43.846Z,102084.94
2022-12-18T05:56:22.426Z,102089.00
2022-12-18T05:58:54.441Z,102093.91
2022-12-18T06:01:26.153Z,102098.09
2022-12-18T06:03:53.480Z,102096.91
2022-12-18T06:06:27.031Z,102100.38
2022-12-18T06:08:55.995Z,102097.81
2022-12-18T06:11:27.292Z,102110.00
2022-12-18T06:13:58.984Z,102111.28
2022-12-18T06:16:28.088Z,102102.56
2022-12-18T06:18:58.613Z,102107.16
2022-12-18T06:21:26.060Z,102123.94
2022-12-18T06:23:53.097Z,102122.50
2022-12-18T06:26:26.180Z,102132.44
2022-12-18T06:28:54.976Z,102131.91
2022-12-18T06:31:22.002Z,102137.28
2022-12-18T06:33:49.015Z,102141.72
2022-12-18T06:36:16.863Z,102153.91
2022-12-18T06:38:45.350Z,102147.28
2022-12-18T06:41:16.147Z,102157.78
2022-12-18T06:43:44.757Z,102162.75
2022-12-18T06:46:12.822Z,102168.78
2022-12-18T06:48:40.392Z,102171.25
2022-12-18T06:51:07.697Z,102172.50
2022-12-18T06:53:34.664Z,102168.50
2022-12-18T06:56:10.415Z,102171.03
2022-12-18T06:58:39.353Z,102175.47
2022-12-18T07:01:09.703Z,102176.41
2022-12-18T07:03:38.788Z,102194.84
2022-12-18T07:06:07.010Z,102190.75
2022-12-18T07:08:34.370Z,102190.19
2022-12-18T07:11:05.469Z,102197.53
2022-12-18T07:13:32.923Z,102203.88
2022-12-18T07:16:26.985Z,102210.06
2022-12-18T07:18:56.227Z,102200.66
2022-12-18T07:21:24.617Z,102198.25
2022-12-18T07:23:51.764Z,102214.28
2022-12-18T07:26:21.787Z,102210.91
2022-12-18T07:28:49.502Z,102226.91
2022-12-18T07:31:21.579Z,102220.47
2022-12-18T07:33:50.214Z,102227.53
2022-12-18T07:36:17.387Z,102228.13
2022-12-18T07:38:47.229Z,102238.41
2022-12-18T07:41:14.881Z,102238.09
2022-12-18T07:43:42.731Z,102248.97
2022-12-18T07:46:11.829Z,102249.34
2022-12-18T07:48:42.292Z,102248.63
2022-12-18T07:51:11.567Z,102258.81
2022-12-18T07:53:39.157Z,102269.00
2022-12-18T07:56:28.109Z,102260.63
2022-12-18T07:58:58.014Z,102278.00
2022-12-18T08:01:25.450Z,102274.28
2022-12-18T08:03:52.760Z,102267.78
2022-12-18T08:06:22.703Z,102282.53
2022-12-18T08:08:56.681Z,102295.13
2022-12-18T08:11:26.174Z,102280.69
2022-12-18T08:13:53.644Z,102293.25
2022-12-18T08:16:22.771Z,102287.72
2022-12-18T08:18:50.469Z,102280.16
2022-12-18T08:21:30.884Z,102290.47
2022-12-18T08:24:00.568Z,102296.91
2022-12-18T08:26:30.618Z,102313.56
2022-12-18T08:28:59.836Z,102312.31
2022-12-18T08:31:29.383Z,102319.72
2022-12-18T08:33:57.082Z,102324.91
2022-12-18T08:36:25.437Z,102338.53
2022-12-18T08:38:54.182Z,102335.69
2022-12-18T08:41:22.194Z,102341.06
2022-12-18T08:44:07.775Z,102331.78
2022-12-18T08:46:40.875Z,102329.78
2022-12-18T08:49:09.198Z,102324.22
2022-12-18T08:51:37.023Z,102338.91
2022-12-18T08:54:06.385Z,102342.16
2022-12-18T08:56:34.460Z,102344.00
2022-12-18T08:59:01.539Z,102336.97
2022-12-18T09:01:29.433Z,102345.38
2022-12-18T09:03:56.764Z,102345.22
2022-12-18T09:06:24.304Z,102337.28
2022-12-18T09:08:51.558Z,102343.75
2022-12-18T09:11:25.723Z,102347.09
2022-12-18T09:13:54.828Z,102352.28
2022-12-18T09:16:30.136Z,102355.94
2022-12-18T09:19:02.959Z,102364.72
2022-12-18T09:21:35.972Z,102369.31
2022-12-18T09:24:08.632Z,102360.88
2022-12-18T09:26:36.659Z,102375.78
2022-12-18T09:29:04.499Z,102361.88
2022-12-18T09:31:31.470Z,102363.28
2022-12-18T09:33:58.453Z,102365.50
2022-12-18T09:36:25.456Z,102367.50
2022-12-18T09:38:52.456Z,102357.38
2022-12-18T09:41:48.485Z,102356.53
2022-12-18T09:44:41.429Z,102351.97
2022-12-18T09:47:21.607Z,102363.56
2022-12-18T09:49:53.644Z,102368.72
2022-12-18T09:52:26.867Z,102371.72
2022-12-18T09:55:11.974Z,102363.38
2022-12-18T09:57:48.721Z,102369.50
2022-12-18T10:00:23.400Z,102369.84
2022-12-18T10:02:54.131Z,102375.34
2022-12-18T10:05:42.398Z,102379.06
2022-12-18T10:08:25.466Z,102386.75
2022-12-18T10:11:27.082Z,102392.28
2022-12-18T10:14:16.819Z,102394.28
2022-12-18T10:16:59.467Z,102399.19
2022-12-18T10:19:35.136Z,102401.34
2022-12-18T10:22:16.861Z,102394.88
2022-12-18T10:25:05.156Z,102392.94
2022-12-18T10:27:32.309Z,102385.75
2022-12-18T10:30:02.379Z,102386.34
2022-12-18T10:32:31.735Z,102382.16
2022-12-18T10:35:00.753Z,102389.63
2022-12-18T10:37:30.736Z,102371.34
2022-12-18T10:40:21.930Z,102390.63
2022-12-18T10:43:05.233Z,102391.44
2022-12-18T10:45:32.327Z,102384.94
2022-12-18T10:47:59.803Z,102384.84
2022-12-18T10:51:09.775Z,102378.91
2022-12-18T10:53:29.136Z,102382.00
2022-12-18T10:56:03.472Z,102379.09
2022-12-18T10:58:33.877Z,102386.88
2022-12-18T11:01:13.045Z,102389.19
2022-12-18T11:03:47.793Z,102386.63
2022-12-18T11:06:19.671Z,102382.03
2022-12-18T11:09:26.035Z,102387.75
2022-12-18T11:12:00.303Z,102391.56
2022-12-18T11:14:34.781Z,102385.88
2022-12-18T11:17:24.777Z,102382.78
2022-12-18T11:20:10.487Z,102391.31
2022-12-18T11:22:39.285Z,102394.41
2022-12-18T11:25:32.359Z,102385.72
2022-12-18T11:28:26.194Z,102395.59
2022-12-18T11:31:17.047Z,102397.03
2022-12-18T11:34:28.468Z,102400.38
2022-12-18T11:36:56.375Z,102397.41
2022-12-18T11:39:47.108Z,102383.06
2022-12-18T11:42:39.434Z,102393.72
2022-12-18T11:45:12.571Z,102399.75
2022-12-18T11:48:25.977Z,102395.97
2022-12-18T11:50:59.956Z,102401.94
2022-12-18T11:53:28.576Z,102400.28
2022-12-18T11:56:15.717Z,102397.63
2022-12-18T11:59:18.839Z,102401.06
2022-12-18T12:02:11.102Z,102399.72
2022-12-18T12:05:27.413Z,102404.34
2022-12-18T12:08:25.650Z,102409.06
2022-12-18T12:11:21.439Z,102409.06
2022-12-18T12:14:02.970Z,102404.88
2022-12-18T12:17:10.156Z,102392.97
2022-12-18T12:19:42.752Z,102395.03
2022-12-18T12:22:31.167Z,102407.63
2022-12-18T12:25:29.206Z,102419.59
2022-12-18T12:28:17.177Z,102399.47
2022-12-18T12:31:27.397Z,102422.47
2022-12-18T12:34:08.749Z,102426.09
2022-12-18T12:37:18.749Z,102428.19
2022-12-18T12:39:49.393Z,102429.91
2022-12-18T12:43:01.810Z,102436.38
2022-12-18T12:45:57.022Z,102431.09
2022-12-18T12:48:37.960Z,102424.69
2022-12-18T12:51:33.128Z,102439.81
2022-12-18T12:54:02.581Z,102441.06
2022-12-18T12:56:47.326Z,102449.78
2022-12-18T12:59:36.634Z,102462.75
2022-12-18T13:02:16.517Z,102470.38
2022-12-18T13:04:59.064Z,102468.78
2022-12-18T13:07:47.181Z,102472.75
2022-12-18T13:10:32.614Z,102475.44
2022-12-18T13:13:17.937Z,102479.09
2022-12-18T13:16:09.100Z,102496.47
2022-12-18T13:18:36.568Z,102488.41
2022-12-18T13:21:24.416Z,102487.84
2022-12-18T13:23:51.738Z,102488.94
2022-12-18T13:26:22.067Z,102492.69
2022-12-18T13:28:56.228Z,102492.19
2022-12-18T13:31:41.719Z,102503.34
2022-12-18T13:37:42.871Z,102493.84
2022-12-18T13:40:41.206Z,102505.22
2022-12-18T13:43:25.437Z,102512.13
2022-12-18T13:46:43.187Z,102512.03
2022-12-18T13:49:42.500Z,102510.94
2022-12-18T13:52:34.312Z,102517.47
2022-12-18T13:55:08.109Z,102511.31
2022-12-18T13:57:41.785Z,102505.84
2022-12-18T14:00:24.136Z,102516.06
2022-12-18T14:02:52.156Z,102506.13
2022-12-18T14:05:30.954Z,102525.06
2022-12-18T14:08:05.859Z,102510.78
2022-12-18T14:10:42.231Z,102525.28
2022-12-18T14:13:43.090Z,102534.63
2022-12-18T14:16:17.679Z,102532.41
2022-12-18T14:18:56.358Z,102532.41
2022-12-18T14:21:31.129Z,102523.03
2022-12-18T14:24:17.564Z,102532.28
2022-12-18T14:26:51.024Z,102520.09
2022-12-18T14:29:27.739Z,102527.16
2022-12-18T14:32:18.656Z,102530.75
2022-12-18T14:34:52.095Z,102523.56
2022-12-18T14:37:27.301Z,102516.97
2022-12-18T14:40:10.590Z,102522.63
2022-12-18T14:42:38.798Z,102527.63
2022-12-18T14:45:42.386Z,102539.13
2022-12-18T14:48:23.362Z,102544.34
2022-12-18T14:51:04.533Z,102556.63
2022-12-18T14:53:39.210Z,102545.97
2022-12-18T14:56:35.553Z,102556.53
2022-12-18T14:59:23.865Z,102552.84
2022-12-18T15:02:12.287Z,102560.44
2022-12-18T15:04:44.667Z,102548.25
2022-12-18T15:07:24.484Z,102568.34
2022-12-18T15:10:22.137Z,102574.84
2022-12-18T15:13:10.576Z,102572.19
2022-12-18T15:15:37.648Z,102574.84
2022-12-18T15:18:13.669Z,102576.53
2022-12-18T15:20:49.538Z,102568.56
2022-12-18T15:23:45.417Z,102558.41
2022-12-18T15:26:15.920Z,102561.22
2022-12-18T15:28:57.014Z,102566.19
2022-12-18T15:31:29.849Z,102572.50
2022-12-18T15:33:56.930Z,102567.50
2022-12-18T15:36:26.490Z,102570.06
2022-12-18T15:39:02.194Z,102577.28
2022-12-18T15:41:37.669Z,102576.19
2022-12-18T15:44:26.467Z,102578.22
2022-12-18T15:46:53.640Z,102580.22
2022-12-18T15:49:20.778Z,102575.97
2022-12-18T15:51:55.867Z,102582.47
2022-12-18T15:54:43.227Z,102588.03
2022-12-18T15:57:24.197Z,102579.72
2022-12-18T15:59:59.179Z,102592.84
2022-12-18T16:02:26.893Z,102591.22
2022-12-18T16:04:55.113Z,102582.91
2022-12-18T16:07:24.579Z,102592.31
2022-12-18T16:09:52.735Z,102579.56
2022-12-18T16:12:25.532Z,102587.88
2022-12-18T16:14:52.537Z,102598.44
2022-12-18T16:17:19.528Z,102590.84
2022-12-18T16:19:46.754Z,102597.31
2022-12-18T16:22:26.307Z,102587.53
2022-12-18T16:24:54.417Z,102587.72
2022-12-18T16:27:22.817Z,102578.84
2022-12-18T16:29:50.388Z,102586.03
2022-12-18T16:32:23.420Z,102581.22
2022-12-18T16:34:50.822Z,102584.75
2022-12-18T16:37:18.171Z,102587.13
2022-12-18T16:39:45.598Z,102583.25
2022-12-18T16:42:19.820Z,102571.25
2022-12-18T16:44:48.974Z,102584.00
2022-12-18T16:47:16.842Z,102582.72
2022-12-18T16:49:51.724Z,102591.59
2022-12-18T16:52:19.303Z,102595.66
2022-12-18T16:54:46.246Z,102601.94
2022-12-18T16:57:18.038Z,102618.78
2022-12-18T16:59:45.882Z,102621.56
2022-12-18T17:02:30.373Z,102610.28
2022-12-18T17:04:58.625Z,102612.91
2022-12-18T17:07:27.355Z,102615.28
2022-12-18T17:09:55.159Z,102626.94
2022-12-18T17:12:23.559Z,102601.44
2022-12-18T17:14:50.697Z,102622.69
2022-12-18T17:17:21.482Z,102621.78
2022-12-18T17:19:50.256Z,102624.16
2022-12-18T17:22:17.873Z,102614.41
2022-12-18T17:24:44.962Z,102622.34
2022-12-18T17:27:12.209Z,102621.63
2022-12-18T17:29:45.380Z,102615.31
2022-12-18T17:32:14.972Z,102617.16
2022-12-18T17:34:42.243Z,102618.06
2022-12-18T17:37:09.902Z,102617.34
2022-12-18T17:39:37.461Z,102621.94
2022-12-18T17:42:05.313Z,102624.38
2022-12-18T17:44:34.479Z,102633.06
2022-12-18T17:47:02.381Z,102626.25
2022-12-18T17:49:29.683Z,102632.34
2022-12-18T17:51:56.668Z,102639.53
2022-12-18T17:54:23.883Z,102642.31
2022-12-18T17:56:51.029Z,102655.81
2022-12-18T17:59:18.060Z,102639.53
2022-12-18T18:01:45.724Z,102634.34
2022-12-18T18:04:14.135Z,102636.94
2022-12-18T18:06:41.789Z,102642.31
2022-12-18T18:09:15.135Z,102634.53
2022-12-18T18:12:03.739Z,102639.00
2022-12-18T18:14:31.409Z,102633.06
2022-12-18T18:17:04.307Z,102637.50
2022-12-18T18:19:33.119Z,102639.38
2022-12-18T18:22:00.503Z,102631.97
2022-12-18T18:24:28.148Z,102644.56
2022-12-18T18:26:55.102Z,102636.03
2022-12-18T18:29:26.706Z,102638.25
2022-12-18T18:31:54.904Z,102631.41
2022-12-18T18:34:28.765Z,102642.13
2022-12-18T18:36:55.825Z,102638.81
2022-12-18T18:39:23.460Z,102635.84
2022-12-18T18:41:50.578Z,102630.50
2022-12-18T18:44:20.652Z,102636.75
2022-12-18T18:46:58.543Z,102653.41
2022-12-18T18:49:27.731Z,102654.66
2022-12-18T18:51:56.542Z,102654.81
2022-12-18T18:54:24.614Z,102657.22
2022-12-18T18:59:38.908Z,102627.47
2022-12-18T19:02:06.539Z,102616.38
2022-12-18T19:04:34.613Z,102645.56
2022-12-18T19:07:01.642Z,102661.47
2022-12-18T19:09:29.513Z,102668.47
2022-12-18T19:12:15.718Z,102646.13
2022-12-18T19:14:43.987Z,102641.47
2022-12-18T19:17:11.394Z,102648.50
2022-12-18T19:19:38.960Z,102643.72
2022-12-18T19:22:06.323Z,102641.44
2022-12-18T19:24:33.379Z,102634.94
2022-12-18T19:27:00.378Z,102650.06
2022-12-18T19:29:27.441Z,102670.59
2022-12-18T19:31:54.433Z,102669.13
2022-12-18T19:34:21.534Z,102666.53
2022-12-18T19:36:48.520Z,102678.50
2022-12-18T19:39:19.275Z,102670.41
2022-12-18T19:41:47.309Z,102675.44
2022-12-18T19:44:16.799Z,102668.53
2022-12-18T19:46:46.258Z,102681.63
2022-12-18T19:49:17.701Z,102674.91
2022-12-18T19:51:45.848Z,102675.84
2022-12-18T19:54:16.908Z,102672.91
2022-12-18T19:56:45.466Z,102660.69
2022-12-18T19:59:12.879Z,102652.50
2022-12-18T20:01:40.235Z,102660.84
2022-12-18T20:04:07.523Z,102666.19
2022-12-18T20:06:56.500Z,102659.91
2022-12-18T20:09:23.698Z,102662.97
2022-12-18T20:11:50.871Z,102659.31
2022-12-18T20:14:22.688Z,102670.94
2022-12-18T20:16:51.534Z,102654.06
2022-12-18T20:19:19.357Z,102657.22
2022-12-18T20:21:46.635Z,102660.78
2022-12-18T20:24:13.810Z,102668.78
2022-12-18T20:26:40.895Z,102675.41
2022-12-18T20:29:07.910Z,102664.88
2022-12-18T20:31:35.113Z,102659.53
2022-12-18T20:34:02.711Z,102665.47
2022-12-18T20:36:32.835Z,102668.66
2022-12-18T20:39:02.626Z,102651.06
2022-12-18T20:41:38.085Z,102677.47
2022-12-18T20:44:11.185Z,102695.78
2022-12-18T20:46:52.913Z,102701.53
2022-12-18T20:49:19.952Z,102696.13
2022-12-18T20:51:51.602Z,102697.66
2022-12-18T20:54:18.627Z,102700.06
2022-12-18T20:56:45.597Z,102688.91
2022-12-18T20:59:12.957Z,102698.50
2022-12-18T21:01:40.859Z,102698.56
2022-12-18T21:04:14.507Z,102702.13
2022-12-18T21:06:42.922Z,102696.53
2022-12-18T21:09:12.994Z,102703.94
2022-12-18T21:12:10.374Z,102697.06
2022-12-18T21:14:39.443Z,102691.50
2022-12-18T21:17:06.578Z,102701.41
2022-12-18T21:19:33.627Z,102697.84
2022-12-18T21:22:00.856Z,102692.44
2022-12-18T21:24:28.196Z,102692.44
2022-12-18T21:26:58.990Z,102683.38
2022-12-18T21:29:26.724Z,102677.13
2022-12-18T21:31:54.958Z,102678.56
2022-12-18T21:34:30.318Z,102669.91
2022-12-18T21:36:59.734Z,102666.19
2022-12-18T21:39:28.675Z,102663.69
2022-12-18T21:42:15.212Z,102667.63
2022-12-18T21:44:43.293Z,102660.19
2022-12-18T21:47:22.387Z,102665.50
2022-12-18T21:49:53.641Z,102648.56
2022-12-18T21:52:29.834Z,102635.59
2022-12-18T21:55:08.909Z,102638.56
2022-12-18T21:57:39.102Z,102631.06
2022-12-18T22:00:10.517Z,102628.03
2022-12-18T22:02:39.882Z,102626.66
2022-12-18T22:05:07.561Z,102615.19
2022-12-18T22:07:34.723Z,102600.81
2022-12-18T22:10:02.169Z,102597.69
2022-12-18T22:12:38.050Z,102589.66
2022-12-18T22:15:21.011Z,102587.94
2022-12-18T22:17:50.527Z,102594.28
2022-12-18T22:20:20.194Z,102597.00
2022-12-18T22:22:48.580Z,102592.56
2022-12-18T22:25:15.593Z,102591.00
2022-12-18T22:27:43.130Z,102593.94
2022-12-18T22:30:14.488Z,102599.47
2022-12-18T22:32:41.494Z,102589.31
2022-12-18T22:35:14.290Z,102593.94
2022-12-18T22:37:42.919Z,102590.09
2022-12-18T22:40:25.446Z,102593.59
2022-12-18T22:42:54.466Z,102592.72
2022-12-18T22:45:22.932Z,102584.38
2022-12-18T22:47:50.485Z,102584.97
2022-12-18T22:50:17.757Z,102577.91
2022-12-18T22:52:45.012Z,102578.25
2022-12-18T22:55:11.950Z,102595.28
2022-12-18T22:57:40.728Z,102599.16
2022-12-18T23:00:13.549Z,102599.16
2022-12-18T23:02:40.774Z,102594.84
2022-12-18T23:05:08.567Z,102589.16
2022-12-18T23:07:35.656Z,102592.41
2022-12-18T23:10:02.630Z,102582.31
2022-12-18T23:12:29.587Z,102583.66
2022-12-18T23:14:56.624Z,102582.16
2022-12-18T23:17:23.659Z,102570.31
2022-12-18T23:19:51.108Z,102578.47
2022-12-18T23:22:18.279Z,102576.41
2022-12-18T23:24:46.064Z,102582.53
2022-12-18T23:27:13.213Z,102587.38
2022-12-18T23:29:40.868Z,102586.41
2022-12-18T23:32:08.494Z,102576.44
2022-12-18T23:34:35.531Z,102576.81
2022-12-18T23:37:03.832Z,102570.56
2022-12-18T23:39:31.227Z,102556.09
2022-12-18T23:42:01.725Z,102572.94
2022-12-18T23:44:28.925Z,102577.00
2022-12-18T23:46:56.157Z,102575.66
2022-12-18T23:49:23.419Z,102573.13
2022-12-18T23:51:50.714Z,102565.16
2022-12-18T23:54:22.369Z,102577.72
2022-12-18T23:57:00.900Z,102572.16
2022-12-18T23:59:27.880Z,102564.34
